sensor_id;sensor_type;location;lat;lon;timestamp;pressure;altitude;pressure_sealevel;temperature
42197;BMP280;27866;48.146;17.098;2024-02-21T00:03:46;100488.19;;;12.89
42197;BMP280;27866;48.146;17.098;2024-02-21T00:07:59;100484.38;;;12.94
42197;BMP280;27866;48.146;17.098;2024-02-21T00:12:11;100481.84;;;12.92
42197;BMP280;27866;48.146;17.098;2024-02-21T00:16:25;100484.66;;;12.89
42197;BMP280;27866;48.146;17.098;2024-02-21T00:20:36;100471.56;;;12.91
42197;BMP280;27866;48.146;17.098;2024-02-21T00:24:48;100474.91;;;12.93
42197;BMP280;27866;48.146;17.098;2024-02-21T00:28:59;100475.53;;;12.84
42197;BMP280;27866;48.146;17.098;2024-02-21T00:33:11;100467.78;;;12.83
42197;BMP280;27866;48.146;17.098;2024-02-21T00:37:22;100474.69;;;12.84
42197;BMP280;27866;48.146;17.098;2024-02-21T00:41:34;100463.84;;;12.77
42197;BMP280;27866;48.146;17.098;2024-02-21T00:45:45;100458.25;;;12.71
42197;BMP280;27866;48.146;17.098;2024-02-21T00:49:56;100446.78;;;12.74
42197;BMP280;27866;48.146;17.098;2024-02-21T00:54:08;100455.13;;;12.78
42197;BMP280;27866;48.146;17.098;2024-02-21T00:58:20;100454.28;;;12.78
42197;BMP280;27866;48.146;17.098;2024-02-21T01:02:31;100456.44;;;12.72
42197;BMP280;27866;48.146;17.098;2024-02-21T01:06:43;100445.72;;;12.64
42197;BMP280;27866;48.146;17.098;2024-02-21T01:10:55;100450.53;;;12.70
42197;BMP280;27866;48.146;17.098;2024-02-21T01:15:07;100441.59;;;12.74
42197;BMP280;27866;48.146;17.098;2024-02-21T01:19:18;100438.38;;;12.70
42197;BMP280;27866;48.146;17.098;2024-02-21T01:23:30;100436.06;;;12.66
42197;BMP280;27866;48.146;17.098;2024-02-21T01:27:41;100421.59;;;12.62
42197;BMP280;27866;48.146;17.098;2024-02-21T01:31:53;100423.28;;;12.63
42197;BMP280;27866;48.146;17.098;2024-02-21T01:36:05;100426.81;;;12.62
42197;BMP280;27866;48.146;17.098;2024-02-21T01:40:20;100414.53;;;12.64
42197;BMP280;27866;48.146;17.098;2024-02-21T01:44:32;100413.75;;;12.63
42197;BMP280;27866;48.146;17.098;2024-02-21T01:48:44;100411.44;;;12.59
42197;BMP280;27866;48.146;17.098;2024-02-21T01:52:57;100417.88;;;12.54
42197;BMP280;27866;48.146;17.098;2024-02-21T01:57:09;100404.31;;;12.49
42197;BMP280;27866;48.146;17.098;2024-02-21T02:01:20;100394.97;;;12.46
42197;BMP280;27866;48.146;17.098;2024-02-21T02:05:32;100396.00;;;12.44
42197;BMP280;27866;48.146;17.098;2024-02-21T02:09:44;100393.41;;;12.44
42197;BMP280;27866;48.146;17.098;2024-02-21T02:13:55;100388.53;;;12.52
42197;BMP280;27866;48.146;17.098;2024-02-21T02:18:07;100392.50;;;12.57
42197;BMP280;27866;48.146;17.098;2024-02-21T02:22:24;100390.69;;;12.45
42197;BMP280;27866;48.146;17.098;2024-02-21T02:26:39;100396.44;;;12.50
42197;BMP280;27866;48.146;17.098;2024-02-21T02:30:50;100408.09;;;12.57
42197;BMP280;27866;48.146;17.098;2024-02-21T02:35:02;100398.56;;;12.58
42197;BMP280;27866;48.146;17.098;2024-02-21T02:39:13;100398.84;;;12.53
42197;BMP280;27866;48.146;17.098;2024-02-21T02:43:25;100392.88;;;12.51
42197;BMP280;27866;48.146;17.098;2024-02-21T02:47:36;100389.56;;;12.49
42197;BMP280;27866;48.146;17.098;2024-02-21T02:51:48;100388.34;;;12.55
42197;BMP280;27866;48.146;17.098;2024-02-21T02:55:59;100391.50;;;12.60
42197;BMP280;27866;48.146;17.098;2024-02-21T03:00:11;100389.72;;;12.72
42197;BMP280;27866;48.146;17.098;2024-02-21T03:04:23;100396.28;;;12.77
42197;BMP280;27866;48.146;17.098;2024-02-21T03:08:34;100406.66;;;12.77
42197;BMP280;27866;48.146;17.098;2024-02-21T03:12:46;100392.34;;;12.84
42197;BMP280;27866;48.146;17.098;2024-02-21T03:16:58;100409.41;;;12.88
42197;BMP280;27866;48.146;17.098;2024-02-21T03:21:10;100407.72;;;12.87
42197;BMP280;27866;48.146;17.098;2024-02-21T03:25:21;100405.75;;;12.90
42197;BMP280;27866;48.146;17.098;2024-02-21T03:29:33;100397.13;;;12.90
42197;BMP280;27866;48.146;17.098;2024-02-21T03:33:44;100413.25;;;12.95
42197;BMP280;27866;48.146;17.098;2024-02-21T03:37:56;100406.16;;;12.97
42197;BMP280;27866;48.146;17.098;2024-02-21T03:42:07;100399.09;;;12.99
42197;BMP280;27866;48.146;17.098;2024-02-21T03:46:19;100391.31;;;12.99
42197;BMP280;27866;48.146;17.098;2024-02-21T03:50:30;100397.53;;;12.96
42197;BMP280;27866;48.146;17.098;2024-02-21T03:54:42;100402.84;;;12.95
42197;BMP280;27866;48.146;17.098;2024-02-21T03:58:54;100401.19;;;12.94
42197;BMP280;27866;48.146;17.098;2024-02-21T04:03:05;100402.94;;;12.81
42197;BMP280;27866;48.146;17.098;2024-02-21T04:07:17;100394.41;;;12.79
42197;BMP280;27866;48.146;17.098;2024-02-21T04:11:29;100403.34;;;12.75
42197;BMP280;27866;48.146;17.098;2024-02-21T04:15:41;100392.75;;;12.78
42197;BMP280;27866;48.146;17.098;2024-02-21T04:20:04;100391.28;;;12.75
42197;BMP280;27866;48.146;17.098;2024-02-21T04:24:16;100381.72;;;12.63
42197;BMP280;27866;48.146;17.098;2024-02-21T04:28:28;100389.69;;;12.60
42197;BMP280;27866;48.146;17.098;2024-02-21T04:32:39;100392.50;;;12.57
42197;BMP280;27866;48.146;17.098;2024-02-21T04:36:51;100389.06;;;12.57
42197;BMP280;27866;48.146;17.098;2024-02-21T04:41:03;100385.09;;;12.51
42197;BMP280;27866;48.146;17.098;2024-02-21T04:45:14;100384.34;;;12.49
42197;BMP280;27866;48.146;17.098;2024-02-21T04:49:26;100388.72;;;12.49
42197;BMP280;27866;48.146;17.098;2024-02-21T04:53:38;100384.56;;;12.46
42197;BMP280;27866;48.146;17.098;2024-02-21T04:57:49;100381.66;;;12.39
42197;BMP280;27866;48.146;17.098;2024-02-21T05:02:00;100376.84;;;12.33
42197;BMP280;27866;48.146;17.098;2024-02-21T05:06:12;100385.78;;;12.29
42197;BMP280;27866;48.146;17.098;2024-02-21T05:10:23;100380.59;;;12.29
42197;BMP280;27866;48.146;17.098;2024-02-21T05:14:35;100379.34;;;12.34
42197;BMP280;27866;48.146;17.098;2024-02-21T05:18:46;100381.44;;;12.42
42197;BMP280;27866;48.146;17.098;2024-02-21T05:22:58;100368.88;;;12.48
42197;BMP280;27866;48.146;17.098;2024-02-21T05:27:09;100373.97;;;12.49
42197;BMP280;27866;48.146;17.098;2024-02-21T05:31:21;100375.84;;;12.47
42197;BMP280;27866;48.146;17.098;2024-02-21T05:35:33;100382.66;;;12.36
42197;BMP280;27866;48.146;17.098;2024-02-21T05:39:45;100370.09;;;12.31
42197;BMP280;27866;48.146;17.098;2024-02-21T05:43:57;100368.03;;;12.35
42197;BMP280;27866;48.146;17.098;2024-02-21T05:48:08;100365.22;;;12.38
42197;BMP280;27866;48.146;17.098;2024-02-21T05:52:20;100373.53;;;12.43
42197;BMP280;27866;48.146;17.098;2024-02-21T05:56:31;100378.44;;;12.47
42197;BMP280;27866;48.146;17.098;2024-02-21T06:00:43;100363.56;;;12.49
42197;BMP280;27866;48.146;17.098;2024-02-21T06:04:54;100362.97;;;12.58
42197;BMP280;27866;48.146;17.098;2024-02-21T06:09:06;100365.09;;;12.65
42197;BMP280;27866;48.146;17.098;2024-02-21T06:13:17;100368.19;;;12.70
42197;BMP280;27866;48.146;17.098;2024-02-21T06:17:28;100375.47;;;12.77
42197;BMP280;27866;48.146;17.098;2024-02-21T06:21:40;100369.97;;;12.82
42197;BMP280;27866;48.146;17.098;2024-02-21T06:25:51;100360.94;;;12.87
42197;BMP280;27866;48.146;17.098;2024-02-21T06:30:03;100365.31;;;12.99
42197;BMP280;27866;48.146;17.098;2024-02-21T06:34:15;100358.84;;;13.04
42197;BMP280;27866;48.146;17.098;2024-02-21T06:38:26;100358.84;;;13.16
42197;BMP280;27866;48.146;17.098;2024-02-21T06:42:38;100362.66;;;13.35
42197;BMP280;27866;48.146;17.098;2024-02-21T06:46:49;100355.34;;;13.52
42197;BMP280;27866;48.146;17.098;2024-02-21T06:51:01;100363.81;;;13.66
42197;BMP280;27866;48.146;17.098;2024-02-21T06:55:12;100357.84;;;13.88
42197;BMP280;27866;48.146;17.098;2024-02-21T06:59:24;100358.47;;;14.25
42197;BMP280;27866;48.146;17.098;2024-02-21T07:03:35;100363.91;;;14.55
42197;BMP280;27866;48.146;17.098;2024-02-21T07:07:50;100359.22;;;14.81
42197;BMP280;27866;48.146;17.098;2024-02-21T07:12:02;100354.13;;;14.80
42197;BMP280;27866;48.146;17.098;2024-02-21T07:16:15;100354.22;;;14.68
42197;BMP280;27866;48.146;17.098;2024-02-21T07:20:26;100357.91;;;14.76
42197;BMP280;27866;48.146;17.098;2024-02-21T07:24:38;100359.66;;;15.09
42197;BMP280;27866;48.146;17.098;2024-02-21T07:28:50;100352.06;;;15.49
42197;BMP280;27866;48.146;17.098;2024-02-21T07:33:01;100355.06;;;15.96
42197;BMP280;27866;48.146;17.098;2024-02-21T07:37:13;100348.88;;;16.08
42197;BMP280;27866;48.146;17.098;2024-02-21T07:41:28;100352.00;;;16.22
42197;BMP280;27866;48.146;17.098;2024-02-21T07:45:41;100348.13;;;16.16
42197;BMP280;27866;48.146;17.098;2024-02-21T07:49:53;100338.38;;;16.38
42197;BMP280;27866;48.146;17.098;2024-02-21T07:54:04;100333.38;;;16.66
42197;BMP280;27866;48.146;17.098;2024-02-21T07:58:16;100328.13;;;16.85
42197;BMP280;27866;48.146;17.098;2024-02-21T08:02:27;100322.47;;;17.39
42197;BMP280;27866;48.146;17.098;2024-02-21T08:06:39;100320.69;;;18.05
42197;BMP280;27866;48.146;17.098;2024-02-21T08:10:50;100322.09;;;18.27
42197;BMP280;27866;48.146;17.098;2024-02-21T08:15:03;100327.34;;;18.18
42197;BMP280;27866;48.146;17.098;2024-02-21T08:19:15;100303.75;;;17.99
42197;BMP280;27866;48.146;17.098;2024-02-21T08:23:28;100306.91;;;18.03
42197;BMP280;27866;48.146;17.098;2024-02-21T08:27:39;100305.72;;;17.68
42197;BMP280;27866;48.146;17.098;2024-02-21T08:31:51;100310.91;;;17.50
42197;BMP280;27866;48.146;17.098;2024-02-21T08:36:02;100305.00;;;17.48
42197;BMP280;27866;48.146;17.098;2024-02-21T08:40:15;100297.06;;;17.68
42197;BMP280;27866;48.146;17.098;2024-02-21T08:44:30;100301.81;;;18.11
42197;BMP280;27866;48.146;17.098;2024-02-21T08:48:43;100287.34;;;19.32
42197;BMP280;27866;48.146;17.098;2024-02-21T08:52:54;100277.47;;;19.70
42197;BMP280;27866;48.146;17.098;2024-02-21T08:57:06;100284.06;;;19.73
42197;BMP280;27866;48.146;17.098;2024-02-21T09:01:18;100278.84;;;20.07
42197;BMP280;27866;48.146;17.098;2024-02-21T09:05:29;100269.47;;;22.01
42197;BMP280;27866;48.146;17.098;2024-02-21T09:09:41;100259.47;;;24.44
42197;BMP280;27866;48.146;17.098;2024-02-21T09:13:52;100245.91;;;25.03
42197;BMP280;27866;48.146;17.098;2024-02-21T09:18:04;100249.63;;;24.67
42197;BMP280;27866;48.146;17.098;2024-02-21T09:22:16;100244.94;;;24.33
42197;BMP280;27866;48.146;17.098;2024-02-21T09:26:27;100255.81;;;23.65
42197;BMP280;27866;48.146;17.098;2024-02-21T09:30:39;100256.59;;;22.83
42197;BMP280;27866;48.146;17.098;2024-02-21T09:34:50;100254.44;;;22.86
42197;BMP280;27866;48.146;17.098;2024-02-21T09:39:02;100253.91;;;23.14
42197;BMP280;27866;48.146;17.098;2024-02-21T09:43:18;100244.53;;;22.80
42197;BMP280;27866;48.146;17.098;2024-02-21T09:47:40;100234.84;;;22.11
42197;BMP280;27866;48.146;17.098;2024-02-21T09:51:53;100240.13;;;21.48
42197;BMP280;27866;48.146;17.098;2024-02-21T09:56:08;100235.09;;;21.22
42197;BMP280;27866;48.146;17.098;2024-02-21T10:00:20;100235.00;;;20.74
42197;BMP280;27866;48.146;17.098;2024-02-21T10:04:34;100235.78;;;20.25
42197;BMP280;27866;48.146;17.098;2024-02-21T10:08:52;100228.38;;;20.21
42197;BMP280;27866;48.146;17.098;2024-02-21T10:13:04;100221.22;;;20.14
42197;BMP280;27866;48.146;17.098;2024-02-21T10:17:17;100222.69;;;20.16
42197;BMP280;27866;48.146;17.098;2024-02-21T10:21:30;100206.41;;;19.96
42197;BMP280;27866;48.146;17.098;2024-02-21T10:25:41;100202.94;;;19.95
42197;BMP280;27866;48.146;17.098;2024-02-21T10:29:56;100205.91;;;19.58
42197;BMP280;27866;48.146;17.098;2024-02-21T10:34:08;100199.72;;;19.24
42197;BMP280;27866;48.146;17.098;2024-02-21T10:38:20;100190.50;;;18.94
42197;BMP280;27866;48.146;17.098;2024-02-21T10:42:32;100193.03;;;19.13
42197;BMP280;27866;48.146;17.098;2024-02-21T10:46:46;100189.63;;;19.55
42197;BMP280;27866;48.146;17.098;2024-02-21T10:51:20;100173.03;;;20.13
42197;BMP280;27866;48.146;17.098;2024-02-21T10:55:38;100166.63;;;21.30
42197;BMP280;27866;48.146;17.098;2024-02-21T10:59:53;100162.63;;;21.74
42197;BMP280;27866;48.146;17.098;2024-02-21T11:04:10;100150.91;;;21.68
42197;BMP280;27866;48.146;17.098;2024-02-21T11:08:24;100148.13;;;21.77
42197;BMP280;27866;48.146;17.098;2024-02-21T11:12:39;100141.16;;;22.31
42197;BMP280;27866;48.146;17.098;2024-02-21T11:16:52;100134.28;;;21.91
42197;BMP280;27866;48.146;17.098;2024-02-21T11:21:04;100139.72;;;21.74
42197;BMP280;27866;48.146;17.098;2024-02-21T11:25:22;100114.03;;;21.76
42197;BMP280;27866;48.146;17.098;2024-02-21T11:29:33;100111.69;;;21.96
42197;BMP280;27866;48.146;17.098;2024-02-21T11:33:52;100127.34;;;21.75
42197;BMP280;27866;48.146;17.098;2024-02-21T11:38:12;100108.19;;;22.35
42197;BMP280;27866;48.146;17.098;2024-02-21T11:42:28;100101.56;;;22.91
42197;BMP280;27866;48.146;17.098;2024-02-21T11:46:40;100091.22;;;23.11
42197;BMP280;27866;48.146;17.098;2024-02-21T11:50:55;100073.59;;;23.55
42197;BMP280;27866;48.146;17.098;2024-02-21T11:55:07;100085.59;;;24.51
42197;BMP280;27866;48.146;17.098;2024-02-21T11:59:19;100062.47;;;25.83
42197;BMP280;27866;48.146;17.098;2024-02-21T12:03:31;100059.25;;;26.73
42197;BMP280;27866;48.146;17.098;2024-02-21T12:07:43;100053.59;;;26.49
42197;BMP280;27866;48.146;17.098;2024-02-21T12:12:02;100049.16;;;26.62
42197;BMP280;27866;48.146;17.098;2024-02-21T12:16:16;100044.56;;;25.24
42197;BMP280;27866;48.146;17.098;2024-02-21T12:20:30;100036.22;;;23.94
42197;BMP280;27866;48.146;17.098;2024-02-21T12:24:42;100034.78;;;23.05
42197;BMP280;27866;48.146;17.098;2024-02-21T12:28:58;100025.03;;;22.38
42197;BMP280;27866;48.146;17.098;2024-02-21T12:33:10;100029.72;;;22.13
42197;BMP280;27866;48.146;17.098;2024-02-21T12:37:23;100024.84;;;21.64
42197;BMP280;27866;48.146;17.098;2024-02-21T12:41:36;100016.63;;;21.28
42197;BMP280;27866;48.146;17.098;2024-02-21T12:45:49;100001.97;;;21.49
42197;BMP280;27866;48.146;17.098;2024-02-21T12:50:01;100003.63;;;21.42
42197;BMP280;27866;48.146;17.098;2024-02-21T12:54:14;100007.38;;;21.01
42197;BMP280;27866;48.146;17.098;2024-02-21T12:58:26;99998.88;;;20.59
42197;BMP280;27866;48.146;17.098;2024-02-21T13:02:39;99987.47;;;20.43
42197;BMP280;27866;48.146;17.098;2024-02-21T13:06:51;99986.81;;;20.49
42197;BMP280;27866;48.146;17.098;2024-02-21T13:11:03;99981.22;;;20.52
42197;BMP280;27866;48.146;17.098;2024-02-21T13:15:15;99975.69;;;20.62
42197;BMP280;27866;48.146;17.098;2024-02-21T13:19:28;99970.09;;;20.73
42197;BMP280;27866;48.146;17.098;2024-02-21T13:23:40;99962.69;;;20.76
42197;BMP280;27866;48.146;17.098;2024-02-21T13:27:52;99967.16;;;20.68
42197;BMP280;27866;48.146;17.098;2024-02-21T13:32:04;99965.94;;;20.47
42197;BMP280;27866;48.146;17.098;2024-02-21T13:36:17;99963.91;;;20.26
42197;BMP280;27866;48.146;17.098;2024-02-21T13:40:30;99968.78;;;20.21
42197;BMP280;27866;48.146;17.098;2024-02-21T13:44:42;99964.63;;;20.11
42197;BMP280;27866;48.146;17.098;2024-02-21T13:49:03;99960.44;;;20.26
42197;BMP280;27866;48.146;17.098;2024-02-21T13:53:18;99946.06;;;20.53
42197;BMP280;27866;48.146;17.098;2024-02-21T13:57:32;99944.09;;;20.62
42197;BMP280;27866;48.146;17.098;2024-02-21T14:01:44;99951.19;;;20.70
42197;BMP280;27866;48.146;17.098;2024-02-21T14:05:56;99940.47;;;20.63
42197;BMP280;27866;48.146;17.098;2024-02-21T14:10:08;99925.38;;;20.73
42197;BMP280;27866;48.146;17.098;2024-02-21T14:14:20;99920.44;;;20.86
42197;BMP280;27866;48.146;17.098;2024-02-21T14:18:32;99916.16;;;20.85
42197;BMP280;27866;48.146;17.098;2024-02-21T14:22:43;99921.13;;;21.11
42197;BMP280;27866;48.146;17.098;2024-02-21T14:26:55;99902.91;;;22.95
42197;BMP280;27866;48.146;17.098;2024-02-21T14:31:07;99881.09;;;26.42
42197;BMP280;27866;48.146;17.098;2024-02-21T14:35:20;99876.47;;;27.94
42197;BMP280;27866;48.146;17.098;2024-02-21T14:39:31;99873.03;;;26.81
42197;BMP280;27866;48.146;17.098;2024-02-21T14:43:45;99866.78;;;25.31
42197;BMP280;27866;48.146;17.098;2024-02-21T14:47:57;99866.19;;;23.86
42197;BMP280;27866;48.146;17.098;2024-02-21T14:52:08;99864.84;;;22.39
42197;BMP280;27866;48.146;17.098;2024-02-21T14:56:21;99871.72;;;21.36
42197;BMP280;27866;48.146;17.098;2024-02-21T15:00:32;99876.00;;;20.75
42197;BMP280;27866;48.146;17.098;2024-02-21T15:04:44;99883.69;;;20.30
42197;BMP280;27866;48.146;17.098;2024-02-21T15:08:55;99868.28;;;20.02
42197;BMP280;27866;48.146;17.098;2024-02-21T15:13:07;99855.34;;;19.69
42197;BMP280;27866;48.146;17.098;2024-02-21T15:17:18;99857.75;;;19.30
42197;BMP280;27866;48.146;17.098;2024-02-21T15:21:30;99849.72;;;19.07
42197;BMP280;27866;48.146;17.098;2024-02-21T15:25:42;99845.34;;;18.90
42197;BMP280;27866;48.146;17.098;2024-02-21T15:29:54;99847.00;;;18.74
42197;BMP280;27866;48.146;17.098;2024-02-21T15:34:08;99852.13;;;18.59
42197;BMP280;27866;48.146;17.098;2024-02-21T15:38:20;99851.16;;;18.43
42197;BMP280;27866;48.146;17.098;2024-02-21T15:42:31;99844.63;;;18.30
42197;BMP280;27866;48.146;17.098;2024-02-21T15:46:43;99842.88;;;18.21
42197;BMP280;27866;48.146;17.098;2024-02-21T15:50:55;99842.28;;;18.10
42197;BMP280;27866;48.146;17.098;2024-02-21T15:55:07;99836.88;;;17.95
42197;BMP280;27866;48.146;17.098;2024-02-21T15:59:21;99832.53;;;17.86
42197;BMP280;27866;48.146;17.098;2024-02-21T16:03:33;99840.47;;;17.68
42197;BMP280;27866;48.146;17.098;2024-02-21T16:07:44;99840.59;;;17.40
42197;BMP280;27866;48.146;17.098;2024-02-21T16:11:56;99838.72;;;17.24
42197;BMP280;27866;48.146;17.098;2024-02-21T16:16:09;99841.94;;;17.09
42197;BMP280;27866;48.146;17.098;2024-02-21T16:20:21;99839.78;;;16.95
42197;BMP280;27866;48.146;17.098;2024-02-21T16:24:32;99831.28;;;16.84
42197;BMP280;27866;48.146;17.098;2024-02-21T16:28:44;99841.56;;;16.76
42197;BMP280;27866;48.146;17.098;2024-02-21T16:32:55;99835.41;;;16.68
42197;BMP280;27866;48.146;17.098;2024-02-21T16:37:07;99829.63;;;16.55
42197;BMP280;27866;48.146;17.098;2024-02-21T16:41:19;99832.94;;;16.48
42197;BMP280;27866;48.146;17.098;2024-02-21T16:45:34;99837.91;;;16.42
42197;BMP280;27866;48.146;17.098;2024-02-21T16:49:46;99825.53;;;16.35
42197;BMP280;27866;48.146;17.098;2024-02-21T16:53:57;99830.06;;;16.23
42197;BMP280;27866;48.146;17.098;2024-02-21T16:58:11;99841.59;;;16.12
42197;BMP280;27866;48.146;17.098;2024-02-21T17:02:22;99833.75;;;16.03
42197;BMP280;27866;48.146;17.098;2024-02-21T17:06:36;99831.16;;;15.94
42197;BMP280;27866;48.146;17.098;2024-02-21T17:10:47;99839.53;;;15.88
42197;BMP280;27866;48.146;17.098;2024-02-21T17:14:59;99836.22;;;15.86
42197;BMP280;27866;48.146;17.098;2024-02-21T17:19:10;99839.81;;;15.85
42197;BMP280;27866;48.146;17.098;2024-02-21T17:23:22;99832.19;;;15.82
42197;BMP280;27866;48.146;17.098;2024-02-21T17:27:34;99833.16;;;15.81
42197;BMP280;27866;48.146;17.098;2024-02-21T17:31:46;99826.03;;;15.83
42197;BMP280;27866;48.146;17.098;2024-02-21T17:35:57;99825.03;;;15.84
42197;BMP280;27866;48.146;17.098;2024-02-21T17:40:09;99817.22;;;15.84
42197;BMP280;27866;48.146;17.098;2024-02-21T17:44:20;99818.72;;;15.77
42197;BMP280;27866;48.146;17.098;2024-02-21T17:48:33;99806.19;;;15.71
42197;BMP280;27866;48.146;17.098;2024-02-21T17:52:45;99804.66;;;15.60
42197;BMP280;27866;48.146;17.098;2024-02-21T17:56:57;99798.97;;;15.46
42197;BMP280;27866;48.146;17.098;2024-02-21T18:01:08;99798.38;;;15.24
42197;BMP280;27866;48.146;17.098;2024-02-21T18:05:20;99785.94;;;15.07
42197;BMP280;27866;48.146;17.098;2024-02-21T18:09:31;99792.75;;;14.90
42197;BMP280;27866;48.146;17.098;2024-02-21T18:13:45;99781.59;;;14.68
42197;BMP280;27866;48.146;17.098;2024-02-21T18:17:57;99775.78;;;14.56
42197;BMP280;27866;48.146;17.098;2024-02-21T18:22:09;99767.72;;;14.39
42197;BMP280;27866;48.146;17.098;2024-02-21T18:26:21;99773.59;;;14.21
42197;BMP280;27866;48.146;17.098;2024-02-21T18:30:32;99766.00;;;13.98
42197;BMP280;27866;48.146;17.098;2024-02-21T18:34:44;99762.31;;;13.81
42197;BMP280;27866;48.146;17.098;2024-02-21T18:38:55;99767.38;;;13.72
42197;BMP280;27866;48.146;17.098;2024-02-21T18:43:07;99747.06;;;13.66
42197;BMP280;27866;48.146;17.098;2024-02-21T18:47:18;99745.34;;;13.56
42197;BMP280;27866;48.146;17.098;2024-02-21T18:51:31;99743.94;;;13.41
42197;BMP280;27866;48.146;17.098;2024-02-21T18:55:43;99737.00;;;13.31
42197;BMP280;27866;48.146;17.098;2024-02-21T18:59:54;99726.75;;;13.19
42197;BMP280;27866;48.146;17.098;2024-02-21T19:04:06;99724.41;;;13.05
42197;BMP280;27866;48.146;17.098;2024-02-21T19:08:18;99728.56;;;12.97
42197;BMP280;27866;48.146;17.098;2024-02-21T19:12:29;99723.00;;;12.91
42197;BMP280;27866;48.146;17.098;2024-02-21T19:16:42;99714.25;;;12.81
42197;BMP280;27866;48.146;17.098;2024-02-21T19:20:54;99713.81;;;12.76
42197;BMP280;27866;48.146;17.098;2024-02-21T19:25:07;99715.91;;;12.72
42197;BMP280;27866;48.146;17.098;2024-02-21T19:29:24;99703.53;;;12.64
42197;BMP280;27866;48.146;17.098;2024-02-21T19:33:35;99696.06;;;12.60
42197;BMP280;27866;48.146;17.098;2024-02-21T19:37:48;99702.22;;;12.59
42197;BMP280;27866;48.146;17.098;2024-02-21T19:42:00;99709.75;;;12.51
42197;BMP280;27866;48.146;17.098;2024-02-21T19:46:11;99700.06;;;12.43
42197;BMP280;27866;48.146;17.098;2024-02-21T19:50:23;99700.41;;;12.38
42197;BMP280;27866;48.146;17.098;2024-02-21T19:54:40;99705.25;;;12.32
42197;BMP280;27866;48.146;17.098;2024-02-21T19:58:52;99709.84;;;12.29
42197;BMP280;27866;48.146;17.098;2024-02-21T20:03:03;99709.00;;;12.28
42197;BMP280;27866;48.146;17.098;2024-02-21T20:07:15;99709.47;;;12.22
42197;BMP280;27866;48.146;17.098;2024-02-21T20:11:26;99694.59;;;12.14
42197;BMP280;27866;48.146;17.098;2024-02-21T20:15:41;99687.78;;;12.13
42197;BMP280;27866;48.146;17.098;2024-02-21T20:19:53;99685.25;;;12.11
42197;BMP280;27866;48.146;17.098;2024-02-21T20:24:06;99689.28;;;12.04
42197;BMP280;27866;48.146;17.098;2024-02-21T20:28:18;99679.81;;;12.03
42197;BMP280;27866;48.146;17.098;2024-02-21T20:32:30;99674.75;;;12.02
42197;BMP280;27866;48.146;17.098;2024-02-21T20:36:44;99660.84;;;12.03
42197;BMP280;27866;48.146;17.098;2024-02-21T20:40:55;99653.53;;;11.97
42197;BMP280;27866;48.146;17.098;2024-02-21T20:45:07;99652.44;;;12.00
42197;BMP280;27866;48.146;17.098;2024-02-21T20:49:19;99656.25;;;11.96
42197;BMP280;27866;48.146;17.098;2024-02-21T20:53:31;99663.41;;;11.92
42197;BMP280;27866;48.146;17.098;2024-02-21T20:57:42;99655.38;;;11.85
42197;BMP280;27866;48.146;17.098;2024-02-21T21:01:55;99643.81;;;11.78
42197;BMP280;27866;48.146;17.098;2024-02-21T21:06:07;99644.28;;;11.72
42197;BMP280;27866;48.146;17.098;2024-02-21T21:10:18;99641.19;;;11.67
42197;BMP280;27866;48.146;17.098;2024-02-21T21:14:30;99636.47;;;11.61
42197;BMP280;27866;48.146;17.098;2024-02-21T21:18:42;99636.47;;;11.61
42197;BMP280;27866;48.146;17.098;2024-02-21T21:22:53;99631.28;;;11.61
42197;BMP280;27866;48.146;17.098;2024-02-21T21:27:05;99620.19;;;11.59
42197;BMP280;27866;48.146;17.098;2024-02-21T21:31:16;99617.94;;;11.55
42197;BMP280;27866;48.146;17.098;2024-02-21T21:35:28;99601.34;;;11.58
42197;BMP280;27866;48.146;17.098;2024-02-21T21:39:40;99596.84;;;11.59
42197;BMP280;27866;48.146;17.098;2024-02-21T21:43:53;99597.44;;;11.63
42197;BMP280;27866;48.146;17.098;2024-02-21T21:48:05;99576.13;;;11.70
42197;BMP280;27866;48.146;17.098;2024-02-21T21:52:16;99578.63;;;11.82
42197;BMP280;27866;48.146;17.098;2024-02-21T21:56:28;99576.16;;;11.91
42197;BMP280;27866;48.146;17.098;2024-02-21T22:00:39;99571.09;;;11.90
42197;BMP280;27866;48.146;17.098;2024-02-21T22:04:54;99559.41;;;11.95
42197;BMP280;27866;48.146;17.098;2024-02-21T22:09:06;99560.94;;;11.87
42197;BMP280;27866;48.146;17.098;2024-02-21T22:13:17;99570.13;;;11.80
42197;BMP280;27866;48.146;17.098;2024-02-21T22:17:29;99557.63;;;11.74
42197;BMP280;27866;48.146;17.098;2024-02-21T22:21:41;99555.88;;;11.75
42197;BMP280;27866;48.146;17.098;2024-02-21T22:25:53;99543.34;;;11.69
42197;BMP280;27866;48.146;17.098;2024-02-21T22:30:05;99541.81;;;11.67
42197;BMP280;27866;48.146;17.098;2024-02-21T22:34:18;99527.31;;;11.64
42197;BMP280;27866;48.146;17.098;2024-02-21T22:38:30;99525.53;;;11.65
42197;BMP280;27866;48.146;17.098;2024-02-21T22:42:42;99516.47;;;11.70
42197;BMP280;27866;48.146;17.098;2024-02-21T22:46:54;99508.56;;;11.72
42197;BMP280;27866;48.146;17.098;2024-02-21T22:51:06;99507.50;;;11.74
42197;BMP280;27866;48.146;17.098;2024-02-21T22:55:18;99502.31;;;11.74
42197;BMP280;27866;48.146;17.098;2024-02-21T22:59:29;99495.13;;;11.77
42197;BMP280;27866;48.146;17.098;2024-02-21T23:03:44;99481.22;;;11.68
42197;BMP280;27866;48.146;17.098;2024-02-21T23:07:55;99482.41;;;11.74
42197;BMP280;27866;48.146;17.098;2024-02-21T23:12:07;99475.91;;;11.80
42197;BMP280;27866;48.146;17.098;2024-02-21T23:16:20;99466.94;;;11.84
42197;BMP280;27866;48.146;17.098;2024-02-21T23:20:32;99454.22;;;11.91
42197;BMP280;27866;48.146;17.098;2024-02-21T23:24:43;99459.50;;;12.01
42197;BMP280;27866;48.146;17.098;2024-02-21T23:28:55;99449.47;;;12.07
42197;BMP280;27866;48.146;17.098;2024-02-21T23:33:07;99434.44;;;12.21
42197;BMP280;27866;48.146;17.098;2024-02-21T23:37:18;99429.25;;;12.31
42197;BMP280;27866;48.146;17.098;2024-02-21T23:41:30;99432.97;;;12.38